sensor_id;sensor_type;location;lat;lon;timestamp;temperature;humidity
45343;DHT22;31077;50.872;4.352;2022-11-12T00:00:19;25.00;43.40
45343;DHT22;31077;50.872;4.352;2022-11-12T00:02:45;25.00;43.40
45343;DHT22;31077;50.872;4.352;2022-11-12T00:05:11;24.90;43.40
45343;DHT22;31077;50.872;4.352;2022-11-12T00:07:36;25.00;43.40
45343;DHT22;31077;50.872;4.352;2022-11-12T00:10:03;25.00;43.40
45343;DHT22;31077;50.872;4.352;2022-11-12T00:12:29;24.90;43.30
45343;DHT22;31077;50.872;4.352;2022-11-12T00:14:54;24.90;43.30
45343;DHT22;31077;50.872;4.352;2022-11-12T00:17:20;23.90;42.70
45343;DHT22;31077;50.872;4.352;2022-11-12T00:19:46;25.00;43.20
45343;DHT22;31077;50.872;4.352;2022-11-12T00:22:12;25.00;43.80
45343;DHT22;31077;50.872;4.352;2022-11-12T00:24:37;25.00;43.20
45343;DHT22;31077;50.872;4.352;2022-11-12T00:27:03;25.00;43.20
45343;DHT22;31077;50.872;4.352;2022-11-12T00:29:29;25.00;43.10
45343;DHT22;31077;50.872;4.352;2022-11-12T00:31:55;25.00;43.10
45343;DHT22;31077;50.872;4.352;2022-11-12T00:34:20;25.00;43.10
45343;DHT22;31077;50.872;4.352;2022-11-12T00:36:46;24.80;43.00
45343;DHT22;31077;50.872;4.352;2022-11-12T00:39:12;25.00;43.00
45343;DHT22;31077;50.872;4.352;2022-11-12T00:41:37;25.00;43.00
45343;DHT22;31077;50.872;4.352;2022-11-12T00:44:03;25.00;43.00
45343;DHT22;31077;50.872;4.352;2022-11-12T00:46:29;24.90;43.00
45343;DHT22;31077;50.872;4.352;2022-11-12T00:48:56;24.90;43.10
45343;DHT22;31077;50.872;4.352;2022-11-12T00:51:22;24.90;43.10
45343;DHT22;31077;50.872;4.352;2022-11-12T00:53:48;24.90;43.10
45343;DHT22;31077;50.872;4.352;2022-11-12T00:56:14;24.90;43.00
45343;DHT22;31077;50.872;4.352;2022-11-12T00:58:40;24.90;42.90
45343;DHT22;31077;50.872;4.352;2022-11-12T01:01:11;24.90;42.90
45343;DHT22;31077;50.872;4.352;2022-11-12T01:03:38;24.90;42.90
45343;DHT22;31077;50.872;4.352;2022-11-12T01:06:16;24.90;42.80
45343;DHT22;31077;50.872;4.352;2022-11-12T01:08:42;24.90;42.80
45343;DHT22;31077;50.872;4.352;2022-11-12T01:11:14;24.90;42.80
45343;DHT22;31077;50.872;4.352;2022-11-12T01:13:43;24.90;42.70
45343;DHT22;31077;50.872;4.352;2022-11-12T01:16:15;24.90;42.80
45343;DHT22;31077;50.872;4.352;2022-11-12T01:18:42;24.80;42.90
45343;DHT22;31077;50.872;4.352;2022-11-12T01:21:08;24.90;42.60
45343;DHT22;31077;50.872;4.352;2022-11-12T01:23:38;24.90;42.60
45343;DHT22;31077;50.872;4.352;2022-11-12T01:26:05;24.90;42.50
45343;DHT22;31077;50.872;4.352;2022-11-12T01:28:32;24.90;42.50
45343;DHT22;31077;50.872;4.352;2022-11-12T01:31:08;24.90;42.50
45343;DHT22;31077;50.872;4.352;2022-11-12T01:33:34;24.90;42.50
45343;DHT22;31077;50.872;4.352;2022-11-12T01:35:59;24.90;42.40
45343;DHT22;31077;50.872;4.352;2022-11-12T01:38:25;24.90;42.40
45343;DHT22;31077;50.872;4.352;2022-11-12T01:40:50;24.90;42.40
45343;DHT22;31077;50.872;4.352;2022-11-12T01:43:16;24.90;42.30
45343;DHT22;31077;50.872;4.352;2022-11-12T01:45:44;24.90;42.90
45343;DHT22;31077;50.872;4.352;2022-11-12T01:48:40;24.80;42.30
45343;DHT22;31077;50.872;4.352;2022-11-12T01:51:09;24.80;42.30
45343;DHT22;31077;50.872;4.352;2022-11-12T01:53:39;24.80;42.20
45343;DHT22;31077;50.872;4.352;2022-11-12T01:56:08;24.80;42.20
45343;DHT22;31077;50.872;4.352;2022-11-12T01:58:36;24.80;42.10
45343;DHT22;31077;50.872;4.352;2022-11-12T02:01:03;24.70;42.10
45343;DHT22;31077;50.872;4.352;2022-11-12T02:03:29;24.80;42.10
45343;DHT22;31077;50.872;4.352;2022-11-12T02:05:58;24.80;42.10
45343;DHT22;31077;50.872;4.352;2022-11-12T02:08:27;24.80;42.10
45343;DHT22;31077;50.872;4.352;2022-11-12T02:10:54;24.70;42.00
45343;DHT22;31077;50.872;4.352;2022-11-12T02:13:20;24.80;42.00
45343;DHT22;31077;50.872;4.352;2022-11-12T02:16:06;24.80;41.90
45343;DHT22;31077;50.872;4.352;2022-11-12T02:18:32;24.80;41.90
45343;DHT22;31077;50.872;4.352;2022-11-12T02:21:03;24.80;41.80
45343;DHT22;31077;50.872;4.352;2022-11-12T02:23:29;24.80;41.80
45343;DHT22;31077;50.872;4.352;2022-11-12T02:25:59;24.80;41.80
45343;DHT22;31077;50.872;4.352;2022-11-12T02:28:26;24.80;41.80
45343;DHT22;31077;50.872;4.352;2022-11-12T02:30:52;24.80;41.80
45343;DHT22;31077;50.872;4.352;2022-11-12T02:33:17;24.80;41.70
45343;DHT22;31077;50.872;4.352;2022-11-12T02:35:43;24.80;41.60
45343;DHT22;31077;50.872;4.352;2022-11-12T02:38:09;24.80;41.70
45343;DHT22;31077;50.872;4.352;2022-11-12T02:40:35;24.80;41.60
45343;DHT22;31077;50.872;4.352;2022-11-12T02:43:00;24.80;41.60
45343;DHT22;31077;50.872;4.352;2022-11-12T02:45:27;24.80;41.60
45343;DHT22;31077;50.872;4.352;2022-11-12T02:47:53;24.80;41.60
45343;DHT22;31077;50.872;4.352;2022-11-12T02:50:18;24.70;41.50
45343;DHT22;31077;50.872;4.352;2022-11-12T02:52:44;24.70;41.50
45343;DHT22;31077;50.872;4.352;2022-11-12T02:55:11;24.70;41.50
45343;DHT22;31077;50.872;4.352;2022-11-12T02:57:37;24.70;41.50
45343;DHT22;31077;50.872;4.352;2022-11-12T03:00:06;24.70;41.50
45343;DHT22;31077;50.872;4.352;2022-11-12T03:02:32;24.70;41.50
45343;DHT22;31077;50.872;4.352;2022-11-12T03:04:58;24.70;41.40
45343;DHT22;31077;50.872;4.352;2022-11-12T03:07:23;24.70;41.40
45343;DHT22;31077;50.872;4.352;2022-11-12T03:09:49;24.80;41.40
45343;DHT22;31077;50.872;4.352;2022-11-12T03:12:15;24.70;41.30
45343;DHT22;31077;50.872;4.352;2022-11-12T03:14:41;24.80;41.30
45343;DHT22;31077;50.872;4.352;2022-11-12T03:17:06;24.80;41.30
45343;DHT22;31077;50.872;4.352;2022-11-12T03:19:32;24.80;41.30
45343;DHT22;31077;50.872;4.352;2022-11-12T03:21:58;24.80;41.30
45343;DHT22;31077;50.872;4.352;2022-11-12T03:24:24;24.70;41.20
45343;DHT22;31077;50.872;4.352;2022-11-12T03:26:49;24.70;41.20
45343;DHT22;31077;50.872;4.352;2022-11-12T03:29:15;24.80;41.10
45343;DHT22;31077;50.872;4.352;2022-11-12T03:31:41;24.70;41.10
45343;DHT22;31077;50.872;4.352;2022-11-12T03:34:06;24.70;41.10
45343;DHT22;31077;50.872;4.352;2022-11-12T03:36:32;24.70;41.10
45343;DHT22;31077;50.872;4.352;2022-11-12T03:38:58;24.70;41.10
45343;DHT22;31077;50.872;4.352;2022-11-12T03:41:23;24.70;41.10
45343;DHT22;31077;50.872;4.352;2022-11-12T03:43:49;24.70;41.10
45343;DHT22;31077;50.872;4.352;2022-11-12T03:46:15;24.70;41.10
45343;DHT22;31077;50.872;4.352;2022-11-12T03:48:41;24.70;41.10
45343;DHT22;31077;50.872;4.352;2022-11-12T03:51:06;24.70;41.10
45343;DHT22;31077;50.872;4.352;2022-11-12T03:53:32;24.70;41.00
45343;DHT22;31077;50.872;4.352;2022-11-12T03:55:58;24.70;41.10
45343;DHT22;31077;50.872;4.352;2022-11-12T03:58:23;24.70;40.90
45343;DHT22;31077;50.872;4.352;2022-11-12T04:00:49;24.70;40.90
45343;DHT22;31077;50.872;4.352;2022-11-12T04:03:15;24.70;40.90
45343;DHT22;31077;50.872;4.352;2022-11-12T04:05:40;24.70;40.90
45343;DHT22;31077;50.872;4.352;2022-11-12T04:08:25;24.70;40.80
45343;DHT22;31077;50.872;4.352;2022-11-12T04:11:06;24.70;40.80
45343;DHT22;31077;50.872;4.352;2022-11-12T04:13:33;24.70;40.80
45343;DHT22;31077;50.872;4.352;2022-11-12T04:16:11;24.70;40.70
45343;DHT22;31077;50.872;4.352;2022-11-12T04:18:57;24.70;40.70
45343;DHT22;31077;50.872;4.352;2022-11-12T04:22:02;24.70;40.70
45343;DHT22;31077;50.872;4.352;2022-11-12T04:24:40;24.70;40.70
45343;DHT22;31077;50.872;4.352;2022-11-12T04:27:30;24.70;40.70
45343;DHT22;31077;50.872;4.352;2022-11-12T04:29:57;24.70;40.70
45343;DHT22;31077;50.872;4.352;2022-11-12T04:32:52;24.70;40.70
45343;DHT22;31077;50.872;4.352;2022-11-12T04:35:23;24.70;40.70
45343;DHT22;31077;50.872;4.352;2022-11-12T04:37:49;24.70;40.70
45343;DHT22;31077;50.872;4.352;2022-11-12T04:40:23;24.70;41.20
45343;DHT22;31077;50.872;4.352;2022-11-12T04:43:13;24.70;40.60
45343;DHT22;31077;50.872;4.352;2022-11-12T04:45:59;24.70;40.60
45343;DHT22;31077;50.872;4.352;2022-11-12T04:48:26;24.70;40.60
45343;DHT22;31077;50.872;4.352;2022-11-12T04:51:03;24.70;40.60
45343;DHT22;31077;50.872;4.352;2022-11-12T04:53:52;24.70;40.50
45343;DHT22;31077;50.872;4.352;2022-11-12T04:56:18;24.60;40.40
45343;DHT22;31077;50.872;4.352;2022-11-12T04:58:44;24.60;40.40
45343;DHT22;31077;50.872;4.352;2022-11-12T05:01:10;24.70;40.40
45343;DHT22;31077;50.872;4.352;2022-11-12T05:03:36;24.70;40.30
45343;DHT22;31077;50.872;4.352;2022-11-12T05:06:03;24.70;40.30
45343;DHT22;31077;50.872;4.352;2022-11-12T05:08:49;24.70;40.80
45343;DHT22;31077;50.872;4.352;2022-11-12T05:11:15;24.70;40.30
45343;DHT22;31077;50.872;4.352;2022-11-12T05:13:41;24.70;40.20
45343;DHT22;31077;50.872;4.352;2022-11-12T05:16:06;24.70;40.20
45343;DHT22;31077;50.872;4.352;2022-11-12T05:18:32;24.70;40.10
45343;DHT22;31077;50.872;4.352;2022-11-12T05:20:58;24.70;40.10
45343;DHT22;31077;50.872;4.352;2022-11-12T05:23:43;24.70;40.10
45343;DHT22;31077;50.872;4.352;2022-11-12T05:26:09;24.70;40.20
45343;DHT22;31077;50.872;4.352;2022-11-12T05:28:35;24.70;40.20
45343;DHT22;31077;50.872;4.352;2022-11-12T05:31:00;24.70;40.10
45343;DHT22;31077;50.872;4.352;2022-11-12T05:33:26;24.60;40.10
45343;DHT22;31077;50.872;4.352;2022-11-12T05:35:55;24.60;40.10
45343;DHT22;31077;50.872;4.352;2022-11-12T05:38:21;24.60;40.10
45343;DHT22;31077;50.872;4.352;2022-11-12T05:40:47;24.60;40.00
45343;DHT22;31077;50.872;4.352;2022-11-12T05:43:12;24.60;40.00
45343;DHT22;31077;50.872;4.352;2022-11-12T05:45:41;25.90;40.80
45343;DHT22;31077;50.872;4.352;2022-11-12T05:48:07;24.60;40.00
45343;DHT22;31077;50.872;4.352;2022-11-12T05:50:33;24.60;39.90
45343;DHT22;31077;50.872;4.352;2022-11-12T05:52:59;24.70;39.90
45343;DHT22;31077;50.872;4.352;2022-11-12T05:55:24;24.70;39.90
45343;DHT22;31077;50.872;4.352;2022-11-12T05:57:50;24.60;39.90
45343;DHT22;31077;50.872;4.352;2022-11-12T06:00:16;24.70;39.90
45343;DHT22;31077;50.872;4.352;2022-11-12T06:02:42;24.70;39.80
45343;DHT22;31077;50.872;4.352;2022-11-12T06:05:08;24.70;39.80
45343;DHT22;31077;50.872;4.352;2022-11-12T06:07:33;24.70;39.80
45343;DHT22;31077;50.872;4.352;2022-11-12T06:09:59;24.60;39.80
45343;DHT22;31077;50.872;4.352;2022-11-12T06:12:25;24.70;39.80
45343;DHT22;31077;50.872;4.352;2022-11-12T06:14:51;24.60;39.70
45343;DHT22;31077;50.872;4.352;2022-11-12T06:17:16;24.70;39.80
45343;DHT22;31077;50.872;4.352;2022-11-12T06:19:42;24.60;39.80
45343;DHT22;31077;50.872;4.352;2022-11-12T06:22:08;24.60;39.70
45343;DHT22;31077;50.872;4.352;2022-11-12T06:24:34;24.60;39.70
45343;DHT22;31077;50.872;4.352;2022-11-12T06:26:59;24.60;39.70
45343;DHT22;31077;50.872;4.352;2022-11-12T06:29:25;24.60;39.70
45343;DHT22;31077;50.872;4.352;2022-11-12T06:31:51;24.60;39.70
45343;DHT22;31077;50.872;4.352;2022-11-12T06:34:16;24.60;39.70
45343;DHT22;31077;50.872;4.352;2022-11-12T06:36:42;24.60;39.70
45343;DHT22;31077;50.872;4.352;2022-11-12T06:39:10;24.60;39.70
45343;DHT22;31077;50.872;4.352;2022-11-12T06:41:35;24.60;39.70
45343;DHT22;31077;50.872;4.352;2022-11-12T06:44:03;24.60;39.60
45343;DHT22;31077;50.872;4.352;2022-11-12T06:46:29;24.60;39.60
45343;DHT22;31077;50.872;4.352;2022-11-12T06:48:55;24.60;39.60
45343;DHT22;31077;50.872;4.352;2022-11-12T06:51:21;24.60;39.60
45343;DHT22;31077;50.872;4.352;2022-11-12T06:53:47;24.60;39.60
45343;DHT22;31077;50.872;4.352;2022-11-12T06:56:14;24.70;39.60
45343;DHT22;31077;50.872;4.352;2022-11-12T06:58:40;24.60;39.60
45343;DHT22;31077;50.872;4.352;2022-11-12T07:01:14;24.60;39.50
45343;DHT22;31077;50.872;4.352;2022-11-12T07:03:40;24.60;39.50
45343;DHT22;31077;50.872;4.352;2022-11-12T07:06:08;24.60;39.40
45343;DHT22;31077;50.872;4.352;2022-11-12T07:08:35;24.60;39.40
45343;DHT22;31077;50.872;4.352;2022-11-12T07:11:01;24.60;39.50
45343;DHT22;31077;50.872;4.352;2022-11-12T07:13:29;24.60;39.40
45343;DHT22;31077;50.872;4.352;2022-11-12T07:15:56;24.60;39.50
45343;DHT22;31077;50.872;4.352;2022-11-12T07:18:23;24.60;39.50
45343;DHT22;31077;50.872;4.352;2022-11-12T07:20:49;24.60;39.50
45343;DHT22;31077;50.872;4.352;2022-11-12T07:23:14;24.60;39.50
45343;DHT22;31077;50.872;4.352;2022-11-12T07:25:40;24.60;39.60
45343;DHT22;31077;50.872;4.352;2022-11-12T07:28:06;24.60;39.50
45343;DHT22;31077;50.872;4.352;2022-11-12T07:30:31;24.60;39.50
45343;DHT22;31077;50.872;4.352;2022-11-12T07:32:57;24.60;39.50
45343;DHT22;31077;50.872;4.352;2022-11-12T07:35:23;24.60;39.50
45343;DHT22;31077;50.872;4.352;2022-11-12T07:37:49;24.60;39.50
45343;DHT22;31077;50.872;4.352;2022-11-12T07:40:14;24.60;39.40
45343;DHT22;31077;50.872;4.352;2022-11-12T07:42:40;24.60;39.40
45343;DHT22;31077;50.872;4.352;2022-11-12T07:45:06;24.60;39.40
45343;DHT22;31077;50.872;4.352;2022-11-12T07:47:32;24.60;39.40
45343;DHT22;31077;50.872;4.352;2022-11-12T07:49:58;24.60;39.40
45343;DHT22;31077;50.872;4.352;2022-11-12T07:52:24;24.60;39.40
45343;DHT22;31077;50.872;4.352;2022-11-12T07:54:50;24.60;39.40
45343;DHT22;31077;50.872;4.352;2022-11-12T07:57:16;24.70;40.00
45343;DHT22;31077;50.872;4.352;2022-11-12T07:59:41;24.60;39.40
45343;DHT22;31077;50.872;4.352;2022-11-12T08:02:07;24.60;39.40
45343;DHT22;31077;50.872;4.352;2022-11-12T08:04:34;24.60;39.50
45343;DHT22;31077;50.872;4.352;2022-11-12T08:07:00;24.60;39.50
45343;DHT22;31077;50.872;4.352;2022-11-12T08:09:25;24.70;39.70
45343;DHT22;31077;50.872;4.352;2022-11-12T08:11:53;24.70;39.70
45343;DHT22;31077;50.872;4.352;2022-11-12T08:14:18;24.60;39.70
45343;DHT22;31077;50.872;4.352;2022-11-12T08:16:44;24.60;39.80
45343;DHT22;31077;50.872;4.352;2022-11-12T08:19:11;24.60;39.80
45343;DHT22;31077;50.872;4.352;2022-11-12T08:21:36;24.60;39.80
45343;DHT22;31077;50.872;4.352;2022-11-12T08:24:02;24.60;39.90
45343;DHT22;31077;50.872;4.352;2022-11-12T08:26:28;24.70;40.00
45343;DHT22;31077;50.872;4.352;2022-11-12T08:28:54;24.70;40.10
45343;DHT22;31077;50.872;4.352;2022-11-12T08:31:21;24.70;40.10
45343;DHT22;31077;50.872;4.352;2022-11-12T08:33:47;24.70;40.20
45343;DHT22;31077;50.872;4.352;2022-11-12T08:36:15;24.70;40.20
45343;DHT22;31077;50.872;4.352;2022-11-12T08:38:41;24.70;40.30
45343;DHT22;31077;50.872;4.352;2022-11-12T08:41:09;24.70;40.30
45343;DHT22;31077;50.872;4.352;2022-11-12T08:43:36;24.70;40.40
45343;DHT22;31077;50.872;4.352;2022-11-12T08:46:03;24.70;40.90
45343;DHT22;31077;50.872;4.352;2022-11-12T08:48:29;24.70;40.40
45343;DHT22;31077;50.872;4.352;2022-11-12T08:50:56;24.70;40.50
45343;DHT22;31077;50.872;4.352;2022-11-12T08:53:23;24.70;40.50
45343;DHT22;31077;50.872;4.352;2022-11-12T08:55:53;24.70;40.50
45343;DHT22;31077;50.872;4.352;2022-11-12T08:58:20;24.70;40.60
45343;DHT22;31077;50.872;4.352;2022-11-12T09:00:46;24.70;40.60
45343;DHT22;31077;50.872;4.352;2022-11-12T09:03:14;24.70;40.70
45343;DHT22;31077;50.872;4.352;2022-11-12T09:05:40;24.70;40.70
45343;DHT22;31077;50.872;4.352;2022-11-12T09:08:08;24.70;40.70
45343;DHT22;31077;50.872;4.352;2022-11-12T09:10:35;24.70;40.80
45343;DHT22;31077;50.872;4.352;2022-11-12T09:13:02;24.70;40.70
45343;DHT22;31077;50.872;4.352;2022-11-12T09:15:28;24.80;40.80
45343;DHT22;31077;50.872;4.352;2022-11-12T09:17:58;24.80;40.90
45343;DHT22;31077;50.872;4.352;2022-11-12T09:20:24;24.80;40.90
45343;DHT22;31077;50.872;4.352;2022-11-12T09:22:50;24.70;40.80
45343;DHT22;31077;50.872;4.352;2022-11-12T09:25:16;24.80;40.90
45343;DHT22;31077;50.872;4.352;2022-11-12T09:27:42;24.80;40.90
45343;DHT22;31077;50.872;4.352;2022-11-12T09:30:08;24.80;41.00
45343;DHT22;31077;50.872;4.352;2022-11-12T09:32:34;24.80;41.00
45343;DHT22;31077;50.872;4.352;2022-11-12T09:34:59;24.80;41.00
45343;DHT22;31077;50.872;4.352;2022-11-12T09:37:25;24.80;41.10
45343;DHT22;31077;50.872;4.352;2022-11-12T09:39:51;24.80;41.20
45343;DHT22;31077;50.872;4.352;2022-11-12T09:42:20;24.80;41.30
45343;DHT22;31077;50.872;4.352;2022-11-12T09:45:13;24.80;41.30
45343;DHT22;31077;50.872;4.352;2022-11-12T09:47:55;24.80;41.30
45343;DHT22;31077;50.872;4.352;2022-11-12T09:50:28;24.90;41.50
45343;DHT22;31077;50.872;4.352;2022-11-12T09:53:22;24.80;41.50
45343;DHT22;31077;50.872;4.352;2022-11-12T09:55:48;24.80;41.60
45343;DHT22;31077;50.872;4.352;2022-11-12T09:58:16;24.80;41.70
45343;DHT22;31077;50.872;4.352;2022-11-12T10:00:54;24.80;41.80
45343;DHT22;31077;50.872;4.352;2022-11-12T10:03:37;24.80;41.80
45343;DHT22;31077;50.872;4.352;2022-11-12T10:06:09;24.80;42.00
45343;DHT22;31077;50.872;4.352;2022-11-12T10:09:04;24.80;42.10
45343;DHT22;31077;50.872;4.352;2022-11-12T10:17:36;24.80;42.10
45343;DHT22;31077;50.872;4.352;2022-11-12T10:20:32;24.80;42.30
45343;DHT22;31077;50.872;4.352;2022-11-12T10:23:16;24.80;42.20
45343;DHT22;31077;50.872;4.352;2022-11-12T10:25:45;24.80;42.20
45343;DHT22;31077;50.872;4.352;2022-11-12T10:28:23;24.80;42.20
45343;DHT22;31077;50.872;4.352;2022-11-12T10:30:58;24.80;42.30
45343;DHT22;31077;50.872;4.352;2022-11-12T10:33:30;24.80;42.10
45343;DHT22;31077;50.872;4.352;2022-11-12T10:38:54;24.90;42.30
45343;DHT22;31077;50.872;4.352;2022-11-12T10:41:32;24.80;42.30
45343;DHT22;31077;50.872;4.352;2022-11-12T10:44:03;24.90;42.50
45343;DHT22;31077;50.872;4.352;2022-11-12T10:46:32;24.80;42.40
45343;DHT22;31077;50.872;4.352;2022-11-12T10:51:36;24.90;42.40
45343;DHT22;31077;50.872;4.352;2022-11-12T10:56:53;24.80;42.30
45343;DHT22;31077;50.872;4.352;2022-11-12T10:59:20;24.90;42.30
45343;DHT22;31077;50.872;4.352;2022-11-12T11:01:55;24.90;42.50
45343;DHT22;31077;50.872;4.352;2022-11-12T11:04:35;24.90;42.40
45343;DHT22;31077;50.872;4.352;2022-11-12T11:07:22;24.90;42.40
45343;DHT22;31077;50.872;4.352;2022-11-12T11:09:59;24.90;42.40
45343;DHT22;31077;50.872;4.352;2022-11-12T11:12:30;24.90;42.50
45343;DHT22;31077;50.872;4.352;2022-11-12T11:17:40;24.90;42.60
45343;DHT22;31077;50.872;4.352;2022-11-12T11:20:27;24.90;42.50
45343;DHT22;31077;50.872;4.352;2022-11-12T11:25:36;24.90;42.60
45343;DHT22;31077;50.872;4.352;2022-11-12T11:28:30;24.90;42.60
45343;DHT22;31077;50.872;4.352;2022-11-12T11:31:01;24.90;42.70
45343;DHT22;31077;50.872;4.352;2022-11-12T11:39:23;24.90;42.60
45343;DHT22;31077;50.872;4.352;2022-11-12T11:50:28;24.90;42.70
45343;DHT22;31077;50.872;4.352;2022-11-12T11:55:52;24.90;42.90
45343;DHT22;31077;50.872;4.352;2022-11-12T12:02:11;25.00;43.00
45343;DHT22;31077;50.872;4.352;2022-11-12T12:04:54;25.00;43.00
45343;DHT22;31077;50.872;4.352;2022-11-12T12:10:23;25.00;43.10
45343;DHT22;31077;50.872;4.352;2022-11-12T12:18:46;25.00;43.20
45343;DHT22;31077;50.872;4.352;2022-11-12T12:21:18;25.00;43.30
45343;DHT22;31077;50.872;4.352;2022-11-12T12:23:48;24.90;43.30
45343;DHT22;31077;50.872;4.352;2022-11-12T12:26:34;25.00;43.40
45343;DHT22;31077;50.872;4.352;2022-11-12T12:29:18;25.00;43.40
45343;DHT22;31077;50.872;4.352;2022-11-12T12:32:19;25.00;43.40
45343;DHT22;31077;50.872;4.352;2022-11-12T12:34:57;25.00;43.40
45343;DHT22;31077;50.872;4.352;2022-11-12T12:37:46;25.00;43.50
45343;DHT22;31077;50.872;4.352;2022-11-12T12:40:15;25.00;43.50
45343;DHT22;31077;50.872;4.352;2022-11-12T12:42:56;25.00;43.50
45343;DHT22;31077;50.872;4.352;2022-11-12T12:45:44;25.00;43.60
45343;DHT22;31077;50.872;4.352;2022-11-12T12:48:23;25.00;43.60
45343;DHT22;31077;50.872;4.352;2022-11-12T12:50:52;25.00;43.60
45343;DHT22;31077;50.872;4.352;2022-11-12T12:58:47;25.00;43.90
45343;DHT22;31077;50.872;4.352;2022-11-12T13:04:00;25.00;44.00
45343;DHT22;31077;50.872;4.352;2022-11-12T13:06:51;25.10;44.00
45343;DHT22;31077;50.872;4.352;2022-11-12T13:17:00;25.10;44.20
45343;DHT22;31077;50.872;4.352;2022-11-12T13:19:29;25.10;44.10
45343;DHT22;31077;50.872;4.352;2022-11-12T13:30:09;25.10;44.20
45343;DHT22;31077;50.872;4.352;2022-11-12T13:35:20;25.20;44.40
45343;DHT22;31077;50.872;4.352;2022-11-12T13:37:56;25.20;44.40
45343;DHT22;31077;50.872;4.352;2022-11-12T13:43:11;25.20;44.60
45343;DHT22;31077;50.872;4.352;2022-11-12T13:46:02;25.20;44.50
45343;DHT22;31077;50.872;4.352;2022-11-12T13:51:10;25.20;44.60
45343;DHT22;31077;50.872;4.352;2022-11-12T13:53:37;25.20;44.60
45343;DHT22;31077;50.872;4.352;2022-11-12T13:56:03;25.20;44.60
45343;DHT22;31077;50.872;4.352;2022-11-12T13:58:31;25.30;44.70
45343;DHT22;31077;50.872;4.352;2022-11-12T14:00:59;25.30;44.80
45343;DHT22;31077;50.872;4.352;2022-11-12T14:03:34;25.30;45.00
45343;DHT22;31077;50.872;4.352;2022-11-12T14:06:14;25.30;44.90
45343;DHT22;31077;50.872;4.352;2022-11-12T14:16:59;25.40;44.80
45343;DHT22;31077;50.872;4.352;2022-11-12T14:19:53;25.30;44.80
45343;DHT22;31077;50.872;4.352;2022-11-12T14:22:20;25.30;44.80
45343;DHT22;31077;50.872;4.352;2022-11-12T14:24:53;25.30;44.70
45343;DHT22;31077;50.872;4.352;2022-11-12T14:32:37;25.30;44.90
45343;DHT22;31077;50.872;4.352;2022-11-12T14:40:21;25.30;44.90
45343;DHT22;31077;50.872;4.352;2022-11-12T14:42:48;25.20;44.90
45343;DHT22;31077;50.872;4.352;2022-11-12T14:45:15;25.20;44.90
45343;DHT22;31077;50.872;4.352;2022-11-12T14:47:46;25.20;44.90
45343;DHT22;31077;50.872;4.352;2022-11-12T14:52:46;25.20;44.90
45343;DHT22;31077;50.872;4.352;2022-11-12T14:55:20;25.30;44.90
45343;DHT22;31077;50.872;4.352;2022-11-12T14:57:46;25.30;45.00
45343;DHT22;31077;50.872;4.352;2022-11-12T15:00:21;25.30;44.90
45343;DHT22;31077;50.872;4.352;2022-11-12T15:03:00;25.30;44.90
45343;DHT22;31077;50.872;4.352;2022-11-12T15:05:27;25.30;45.00
45343;DHT22;31077;50.872;4.352;2022-11-12T15:08:01;25.30;44.90
45343;DHT22;31077;50.872;4.352;2022-11-12T15:13:13;25.30;44.90
45343;DHT22;31077;50.872;4.352;2022-11-12T15:15:49;25.20;44.90
45343;DHT22;31077;50.872;4.352;2022-11-12T15:18:23;25.30;45.00
45343;DHT22;31077;50.872;4.352;2022-11-12T15:21:21;25.30;45.00
45343;DHT22;31077;50.872;4.352;2022-11-12T15:23:56;25.20;45.00
45343;DHT22;31077;50.872;4.352;2022-11-12T15:29:01;25.20;45.00
45343;DHT22;31077;50.872;4.352;2022-11-12T15:31:27;25.20;45.10
45343;DHT22;31077;50.872;4.352;2022-11-12T15:33:53;25.20;45.20
45343;DHT22;31077;50.872;4.352;2022-11-12T15:36:21;25.20;45.20
45343;DHT22;31077;50.872;4.352;2022-11-12T15:38:50;25.10;45.20
45343;DHT22;31077;50.872;4.352;2022-11-12T15:41:26;25.20;45.30
45343;DHT22;31077;50.872;4.352;2022-11-12T15:43:52;25.10;45.30
45343;DHT22;31077;50.872;4.352;2022-11-12T15:46:18;25.10;45.30
45343;DHT22;31077;50.872;4.352;2022-11-12T15:48:44;25.10;45.30
45343;DHT22;31077;50.872;4.352;2022-11-12T15:51:10;25.10;45.30
45343;DHT22;31077;50.872;4.352;2022-11-12T15:53:36;25.10;45.40
45343;DHT22;31077;50.872;4.352;2022-11-12T15:56:03;25.00;45.30
45343;DHT22;31077;50.872;4.352;2022-11-12T15:58:32;25.10;45.50
45343;DHT22;31077;50.872;4.352;2022-11-12T16:00:58;25.10;45.50
45343;DHT22;31077;50.872;4.352;2022-11-12T16:03:24;25.10;45.50
45343;DHT22;31077;50.872;4.352;2022-11-12T16:05:50;25.10;45.50
45343;DHT22;31077;50.872;4.352;2022-11-12T16:08:16;25.10;45.50
45343;DHT22;31077;50.872;4.352;2022-11-12T16:10:43;25.10;45.60
45343;DHT22;31077;50.872;4.352;2022-11-12T16:13:28;25.00;45.50
45343;DHT22;31077;50.872;4.352;2022-11-12T16:15:55;25.10;45.60
45343;DHT22;31077;50.872;4.352;2022-11-12T16:18:21;25.10;45.60
45343;DHT22;31077;50.872;4.352;2022-11-12T16:20:47;25.00;45.60
45343;DHT22;31077;50.872;4.352;2022-11-12T16:23:14;25.00;45.70
45343;DHT22;31077;50.872;4.352;2022-11-12T16:25:41;25.00;45.70
45343;DHT22;31077;50.872;4.352;2022-11-12T16:28:17;25.00;45.80
45343;DHT22;31077;50.872;4.352;2022-11-12T16:30:44;25.00;45.80
45343;DHT22;31077;50.872;4.352;2022-11-12T16:33:11;25.00;45.80
45343;DHT22;31077;50.872;4.352;2022-11-12T16:35:38;25.00;45.90
45343;DHT22;31077;50.872;4.352;2022-11-12T16:38:13;25.00;45.90
45343;DHT22;31077;50.872;4.352;2022-11-12T16:40:39;25.00;46.00
45343;DHT22;31077;50.872;4.352;2022-11-12T16:43:05;25.00;46.00
45343;DHT22;31077;50.872;4.352;2022-11-12T16:45:34;25.50;46.40
45343;DHT22;31077;50.872;4.352;2022-11-12T16:48:00;25.00;46.10
45343;DHT22;31077;50.872;4.352;2022-11-12T16:50:29;24.90;46.10
45343;DHT22;31077;50.872;4.352;2022-11-12T16:52:55;24.90;46.10
45343;DHT22;31077;50.872;4.352;2022-11-12T16:55:21;25.00;46.30
45343;DHT22;31077;50.872;4.352;2022-11-12T16:57:46;24.90;46.10
45343;DHT22;31077;50.872;4.352;2022-11-12T17:00:14;24.90;46.10
45343;DHT22;31077;50.872;4.352;2022-11-12T17:02:40;25.00;46.20
45343;DHT22;31077;50.872;4.352;2022-11-12T17:05:12;25.00;46.20
45343;DHT22;31077;50.872;4.352;2022-11-12T17:07:39;24.90;46.20
45343;DHT22;31077;50.872;4.352;2022-11-12T17:10:05;24.90;46.20
45343;DHT22;31077;50.872;4.352;2022-11-12T17:12:30;24.90;46.30
45343;DHT22;31077;50.872;4.352;2022-11-12T17:14:56;23.60;45.60
45343;DHT22;31077;50.872;4.352;2022-11-12T17:17:22;24.90;46.30
45343;DHT22;31077;50.872;4.352;2022-11-12T17:19:47;24.90;46.30
45343;DHT22;31077;50.872;4.352;2022-11-12T17:22:13;24.90;46.30
45343;DHT22;31077;50.872;4.352;2022-11-12T17:24:39;24.90;46.40
45343;DHT22;31077;50.872;4.352;2022-11-12T17:27:05;24.90;46.40
45343;DHT22;31077;50.872;4.352;2022-11-12T17:29:30;24.90;46.50
45343;DHT22;31077;50.872;4.352;2022-11-12T17:31:56;24.90;46.40